Ana Sayfa
METAR-TAF:

METAR-TAF

Havaalanları :

Harlingen, Teksas, Amerika Birleşik Devletleri

Enlem: 26-13-47N, Boylam: 097-39-19W, yükseklik: 10 m

Güncel hava durumu gözlemi

Rapor saat 08:52 UTC de 46 dakika önce yapıldı.
Rüzgar kuzeydan 5 kt
Sıcaklık 14°C
Nem 94%
Basınç 1023 hPa
Görüş mesafesi: 16.1 km
Açık gökyüzü
Pus

METAR: KHRL 070852Z AUTO 35005KT 10SM BR CLR 14/13 A3021 RMK AO2 SLP231 T01390128 58002

Saat: 03:38 (09:38 UTC)

Tahmin

Rapor saat 08:58 UTC de 40 dakika önce yapıldı.
Ayın 07'si saat 09 UTC'den ayın 08'si saat 06 UTC'ye kadar geçerli Tahmin
Rüzgar kuzeydan 5 kt
Görüş mesafesi: 10 km
Açık gökyüzü
Geçici
ayın 07'si saat 11 UTC'den ayın 07'si saat 14 UTC'ye kadar
Görüş mesafesi: 8.0 km
Pus
Ayın 07'si saat 1800 UTC'den
Rüzgar doğu/kuzeydoğudan 8 kt
Görüş mesafesi: 10 km
4000 ft yükseklikte az bulutlu

TAF: KHRL 070858Z 0709/0806 01005KT P6SM SKC TEMPO 0711/0714 5SM BR FM071800 06008KT P6SM FEW040

4.000'den fazla havaalanı için hava durumu gözlemleri ve tahminleri (METAR ve TAF raporları).

Kullanılabilir istasyonlar harita üzerinde sarı ve kırmızı noktalarla gösterilir.

İstasyonun adını görmek için fareyi noktanın üzerinde gezdirin.

Sonrasında hava gözlem ve tahminlerini görmek için tıklayın.

Haritayı değiştirmek için: yaklaştırmak için siyah artı işaretli yeşil düğmeye ve uzaklaştırmak için de eksi işaretli düğmeye hızla tıklayın; bitişik haritalar için yeşil okları kullanın.


METAR-TAF: